Time;durP1;ratioP1;P1;durP2;ratioP2;P2;SDS_P1;SDS_P2;PMS_P1;PMS_P2;Temp;Humidity;BMP_temperature;BMP_pressure;BME280_temperature;BME280_humidity;BME280_pressure;Samples;Min_cycle;Max_cycle;Signal;HPM_P1;HPM_P2
2023/08/29 00:00:10;;;;;;;0.50;0.50;;;;;;;;;;5026815;28;20541;-71
2023/08/29 00:02:40;;;;;;;0.60;0.60;;;;;;;;;;5023883;28;20053;-70
2023/08/29 00:05:07;;;;;;;0.60;0.60;;;;;;;;;;5027532;28;20492;-71
2023/08/29 00:07:33;;;;;;;0.40;0.40;;;;;;;;;;5025288;28;20049;-71
2023/08/29 00:09:59;;;;;;;0.50;0.50;;;;;;;;;;5021354;28;20056;-70
2023/08/29 00:12:25;;;;;;;0.32;0.32;;;;;;;;;;5022933;28;20041;-71
2023/08/29 00:14:51;;;;;;;0.60;0.50;;;;;;;;;;5019729;28;20396;-71
2023/08/29 00:17:17;;;;;;;0.40;0.40;;;;;;;;;;5023368;28;20045;-70
2023/08/29 00:19:43;;;;;;;0.70;0.70;;;;;;;;;;5025612;28;20041;-71
2023/08/29 00:22:09;;;;;;;0.43;0.43;;;;;;;;;;5024356;28;20098;-71
2023/08/29 00:24:35;;;;;;;0.50;0.45;;;;;;;;;;5021078;28;20045;-70
2023/08/29 00:27:01;;;;;;;0.63;0.60;;;;;;;;;;5024317;28;20060;-70
2023/08/29 00:29:27;;;;;;;0.50;0.50;;;;;;;;;;5024813;28;20041;-70
2023/08/29 00:31:53;;;;;;;0.60;0.60;;;;;;;;;;5019430;28;20091;-71
2023/08/29 00:34:19;;;;;;;0.60;0.60;;;;;;;;;;5024254;28;20049;-71
2023/08/29 00:36:45;;;;;;;0.77;0.77;;;;;;;;;;5024823;28;20076;-71
2023/08/29 00:39:11;;;;;;;0.60;0.60;;;;;;;;;;5030372;28;20040;-71
2023/08/29 00:41:37;;;;;;;0.52;0.52;;;;;;;;;;5027621;28;20052;-71
2023/08/29 00:44:03;;;;;;;0.60;0.60;;;;;;;;;;5026389;28;20056;-71
2023/08/29 00:46:29;;;;;;;2.35;1.10;;;;;;;;;;5025563;28;20057;-71
2023/08/29 00:48:55;;;;;;;0.70;0.70;;;;;;;;;;5028113;28;20118;-71
2023/08/29 00:51:21;;;;;;;1.02;0.60;;;;;;;;;;5024616;28;20049;-71
2023/08/29 00:53:48;;;;;;;1.00;0.75;;;;;;;;;;5027244;28;20045;-70
2023/08/29 00:56:17;;;;;;;1.40;0.70;;;;;;;;;;5028778;28;20045;-71
2023/08/29 00:58:44;;;;;;;0.50;0.40;;;;;;;;;;5024730;28;20052;-71
2023/08/29 01:01:12;;;;;;;0.65;0.65;;;;;;;;;;5028872;28;20459;-71
2023/08/29 01:03:38;;;;;;;0.55;0.55;;;;;;;;;;5027554;28;20381;-71
2023/08/29 01:06:04;;;;;;;0.70;0.70;;;;;;;;;;5021922;28;20049;-71
2023/08/29 01:08:30;;;;;;;0.60;0.60;;;;;;;;;;5022669;28;20053;-71
2023/08/29 01:11:03;;;;;;;0.90;0.70;;;;;;;;;;5025230;28;20102;-70
2023/08/29 01:13:29;;;;;;;0.77;0.70;;;;;;;;;;5021774;28;20046;-71
2023/08/29 01:15:58;;;;;;;0.70;0.70;;;;;;;;;;5022352;28;20045;-71
2023/08/29 01:18:25;;;;;;;0.75;0.75;;;;;;;;;;5021360;28;20130;-71
2023/08/29 01:20:55;;;;;;;0.63;0.63;;;;;;;;;;5022952;28;20094;-71
2023/08/29 01:23:30;;;;;;;0.55;0.55;;;;;;;;;;5021713;28;20107;-71
2023/08/29 01:26:15;;;;;;;0.68;0.60;;;;;;;;;;5022617;28;20048;-71
2023/08/29 01:28:43;;;;;;;0.60;0.60;;;;;;;;;;5022868;28;20487;-71
2023/08/29 01:31:10;;;;;;;0.40;0.40;;;;;;;;;;5022022;28;20049;-71
2023/08/29 01:33:38;;;;;;;0.77;0.60;;;;;;;;;;5025189;28;20650;-70
2023/08/29 01:36:04;;;;;;;0.70;0.70;;;;;;;;;;5028746;28;20057;-71
2023/08/29 01:38:30;;;;;;;0.57;0.57;;;;;;;;;;5028950;28;20484;-70
2023/08/29 01:40:57;;;;;;;0.70;0.70;;;;;;;;;;5027939;28;20989;-71
2023/08/29 01:43:23;;;;;;;0.40;0.40;;;;;;;;;;5026832;28;20697;-71
2023/08/29 01:45:49;;;;;;;0.50;0.50;;;;;;;;;;5025575;28;20057;-71
2023/08/29 01:48:15;;;;;;;0.50;0.50;;;;;;;;;;5030753;28;20056;-71
2023/08/29 01:50:41;;;;;;;0.73;0.57;;;;;;;;;;5026940;28;20451;-71
2023/08/29 01:53:08;;;;;;;0.40;0.40;;;;;;;;;;5026749;28;20057;-71
2023/08/29 01:55:35;;;;;;;0.40;0.40;;;;;;;;;;5025021;28;20045;-71
2023/08/29 01:58:02;;;;;;;0.30;0.30;;;;;;;;;;5023725;28;20048;-70
2023/08/29 02:00:28;;;;;;;0.30;0.30;;;;;;;;;;5026813;28;20447;-71
2023/08/29 02:02:54;;;;;;;0.40;0.40;;;;;;;;;;5023325;28;20049;-71
2023/08/29 02:05:20;;;;;;;0.30;0.30;;;;;;;;;;5025706;28;20562;-71
2023/08/29 02:07:46;;;;;;;0.45;0.45;;;;;;;;;;5023265;28;20042;-70
2023/08/29 02:10:12;;;;;;;0.40;0.40;;;;;;;;;;5023921;28;20048;-71
2023/08/29 02:12:38;;;;;;;0.60;0.47;;;;;;;;;;5024030;28;20047;-71
2023/08/29 02:15:06;;;;;;;0.30;0.30;;;;;;;;;;5021333;28;20046;-71
2023/08/29 02:17:33;;;;;;;0.32;0.32;;;;;;;;;;5020875;28;20045;-71
2023/08/29 02:19:59;;;;;;;0.50;0.50;;;;;;;;;;5024798;28;20136;-71
2023/08/29 02:22:25;;;;;;;0.50;0.50;;;;;;;;;;5024582;28;20053;-71
2023/08/29 02:24:51;;;;;;;0.55;0.52;;;;;;;;;;5023968;28;20484;-70
2023/08/29 02:27:17;;;;;;;0.40;0.40;;;;;;;;;;5023715;28;20128;-71
2023/08/29 02:29:43;;;;;;;0.50;0.50;;;;;;;;;;5022325;28;20458;-70
2023/08/29 02:32:09;;;;;;;0.32;0.32;;;;;;;;;;5022016;28;20095;-71
2023/08/29 02:34:35;;;;;;;0.50;0.50;;;;;;;;;;5020800;28;20136;-71
2023/08/29 02:37:01;;;;;;;0.50;0.50;;;;;;;;;;5023061;28;20125;-71
2023/08/29 02:39:27;;;;;;;0.35;0.35;;;;;;;;;;5021989;28;20064;-70
2023/08/29 02:41:53;;;;;;;0.50;0.50;;;;;;;;;;5025885;28;20430;-71
2023/08/29 02:44:19;;;;;;;0.40;0.40;;;;;;;;;;5023768;28;20049;-71
2023/08/29 02:46:45;;;;;;;0.30;0.30;;;;;;;;;;5028725;28;20385;-71
2023/08/29 02:49:11;;;;;;;0.35;0.35;;;;;;;;;;5027747;28;20045;-71
2023/08/29 02:51:37;;;;;;;0.32;0.32;;;;;;;;;;5025971;28;20079;-71
2023/08/29 02:54:03;;;;;;;0.40;0.40;;;;;;;;;;5029183;28;20492;-71
2023/08/29 02:56:29;;;;;;;0.30;0.30;;;;;;;;;;5028124;28;20123;-71
2023/08/29 02:58:55;;;;;;;0.40;0.40;;;;;;;;;;5025427;28;20070;-71
2023/08/29 03:01:21;;;;;;;0.40;0.40;;;;;;;;;;5022150;28;20550;-71
2023/08/29 03:03:48;;;;;;;0.40;0.40;;;;;;;;;;5024717;28;20561;-71
2023/08/29 03:06:14;;;;;;;0.20;0.20;;;;;;;;;;5023413;28;20046;-71
2023/08/29 03:08:40;;;;;;;0.30;0.30;;;;;;;;;;5022895;28;20049;-71
2023/08/29 03:11:06;;;;;;;0.20;0.20;;;;;;;;;;5023719;28;20063;-71
2023/08/29 03:13:33;;;;;;;0.10;0.10;;;;;;;;;;5024272;28;20456;-71
2023/08/29 03:15:59;;;;;;;0.30;0.30;;;;;;;;;;5026666;28;20095;-71
2023/08/29 03:18:26;;;;;;;1.38;0.30;;;;;;;;;;5024786;28;20045;-71
2023/08/29 03:20:52;;;;;;;0.22;0.22;;;;;;;;;;5025214;28;20110;-71
2023/08/29 03:23:18;;;;;;;0.25;0.25;;;;;;;;;;5025668;28;20057;-71
2023/08/29 03:25:44;;;;;;;0.30;0.28;;;;;;;;;;5026343;28;20033;-71
2023/08/29 03:28:10;;;;;;;0.30;0.30;;;;;;;;;;5026180;28;20565;-71
2023/08/29 03:30:36;;;;;;;0.32;0.32;;;;;;;;;;5027244;28;20042;-71
2023/08/29 03:33:02;;;;;;;0.45;0.30;;;;;;;;;;5028322;28;20083;-71
2023/08/29 03:35:28;;;;;;;0.25;0.25;;;;;;;;;;5024074;28;20125;-70
2023/08/29 03:37:55;;;;;;;0.20;0.20;;;;;;;;;;5029694;28;20029;-70
2023/08/29 03:40:21;;;;;;;0.25;0.25;;;;;;;;;;5028931;28;20324;-71
2023/08/29 03:42:47;;;;;;;0.30;0.30;;;;;;;;;;5032211;28;20045;-71
2023/08/29 03:45:13;;;;;;;0.17;0.17;;;;;;;;;;5032087;28;20140;-70
2023/08/29 03:47:39;;;;;;;0.20;0.20;;;;;;;;;;5028487;28;20049;-71
2023/08/29 03:50:06;;;;;;;0.20;0.20;;;;;;;;;;5032052;28;20049;-71
2023/08/29 03:52:32;;;;;;;0.35;0.35;;;;;;;;;;5025677;28;20041;-71
2023/08/29 03:54:58;;;;;;;0.17;0.17;;;;;;;;;;5029391;28;20129;-71
2023/08/29 03:57:25;;;;;;;0.10;0.10;;;;;;;;;;5028962;28;20499;-71
2023/08/29 03:59:51;;;;;;;0.17;0.17;;;;;;;;;;5026166;28;20042;-71
2023/08/29 04:02:17;;;;;;;0.40;0.38;;;;;;;;;;5029414;28;20048;-71
2023/08/29 04:04:47;;;;;;;0.20;0.20;;;;;;;;;;5029285;28;20103;-71
2023/08/29 04:07:13;;;;;;;0.22;0.22;;;;;;;;;;5027702;28;20053;-71
2023/08/29 04:09:39;;;;;;;0.20;0.20;;;;;;;;;;5025585;28;20044;-71
2023/08/29 04:12:08;;;;;;;0.30;0.30;;;;;;;;;;5022122;28;20079;-71
2023/08/29 04:14:34;;;;;;;1.00;0.43;;;;;;;;;;5023636;28;20099;-71
2023/08/29 04:17:01;;;;;;;0.30;0.30;;;;;;;;;;5022303;28;20045;-71
2023/08/29 04:19:27;;;;;;;0.30;0.28;;;;;;;;;;5023877;28;20049;-71
2023/08/29 04:21:53;;;;;;;0.73;0.60;;;;;;;;;;5023585;28;20049;-70
2023/08/29 04:24:19;;;;;;;0.30;0.30;;;;;;;;;;5023412;28;20037;-71
2023/08/29 04:26:45;;;;;;;0.20;0.20;;;;;;;;;;5025054;28;20071;-71
2023/08/29 04:29:11;;;;;;;0.30;0.30;;;;;;;;;;5022052;28;20046;-70
2023/08/29 04:31:37;;;;;;;0.35;0.35;;;;;;;;;;5022880;28;20048;-71
2023/08/29 04:34:03;;;;;;;0.30;0.30;;;;;;;;;;5021987;28;20115;-71
2023/08/29 04:36:29;;;;;;;0.70;0.40;;;;;;;;;;5023803;28;20052;-71
2023/08/29 04:38:55;;;;;;;0.30;0.30;;;;;;;;;;5026252;28;20037;-71
2023/08/29 04:41:21;;;;;;;0.30;0.30;;;;;;;;;;5021190;28;20164;-70
2023/08/29 04:43:47;;;;;;;0.30;0.30;;;;;;;;;;5029217;28;20456;-70
2023/08/29 04:46:13;;;;;;;0.20;0.20;;;;;;;;;;5025358;28;20048;-71
2023/08/29 04:48:39;;;;;;;0.25;0.25;;;;;;;;;;5029019;28;20053;-71
2023/08/29 04:51:05;;;;;;;0.20;0.20;;;;;;;;;;5026223;28;20140;-71
2023/08/29 04:53:32;;;;;;;0.30;0.30;;;;;;;;;;5022643;28;20064;-71
2023/08/29 04:55:59;;;;;;;0.30;0.30;;;;;;;;;;5026482;28;20055;-70
2023/08/29 04:58:25;;;;;;;0.10;0.10;;;;;;;;;;5021628;28;20053;-71
2023/08/29 05:00:51;;;;;;;0.30;0.30;;;;;;;;;;5025302;28;20072;-70
2023/08/29 05:03:18;;;;;;;0.20;0.20;;;;;;;;;;5023911;28;20044;-70
2023/08/29 05:05:47;;;;;;;0.10;0.10;;;;;;;;;;5021876;28;20144;-70
2023/08/29 05:08:13;;;;;;;2.35;0.40;;;;;;;;;;5020999;28;20045;-70
2023/08/29 05:10:39;;;;;;;0.40;0.40;;;;;;;;;;5022563;28;20041;-70
2023/08/29 05:13:05;;;;;;;0.22;0.22;;;;;;;;;;5020872;28;20104;-71
2023/08/29 05:15:32;;;;;;;0.40;0.40;;;;;;;;;;5022831;28;20053;-70
2023/08/29 05:17:58;;;;;;;0.40;0.40;;;;;;;;;;5022405;28;20042;-70
2023/08/29 05:20:24;;;;;;;0.40;0.38;;;;;;;;;;5019540;28;20037;-70
2023/08/29 05:22:50;;;;;;;0.40;0.40;;;;;;;;;;5022797;28;20428;-71
2023/08/29 05:25:16;;;;;;;0.40;0.40;;;;;;;;;;5024468;28;20077;-71
2023/08/29 05:27:42;;;;;;;0.32;0.30;;;;;;;;;;5024144;28;20060;-70
2023/08/29 05:30:09;;;;;;;0.38;0.38;;;;;;;;;;5023354;28;20107;-71
2023/08/29 05:32:38;;;;;;;0.17;0.17;;;;;;;;;;5022238;28;20042;-70
2023/08/29 05:35:04;;;;;;;0.30;0.30;;;;;;;;;;5024841;28;20045;-70
2023/08/29 05:37:30;;;;;;;0.50;0.30;;;;;;;;;;5021954;28;20068;-70
2023/08/29 05:39:56;;;;;;;0.10;0.10;;;;;;;;;;5031961;28;20768;-70
2023/08/29 05:42:22;;;;;;;0.10;0.10;;;;;;;;;;5020382;28;20426;-70
2023/08/29 05:44:48;;;;;;;0.10;0.10;;;;;;;;;;5029857;28;20053;-71
2023/08/29 05:47:14;;;;;;;0.30;0.20;;;;;;;;;;5026787;28;20048;-70
2023/08/29 05:49:40;;;;;;;0.10;0.10;;;;;;;;;;5025610;28;20128;-70
2023/08/29 05:52:09;;;;;;;0.10;0.10;;;;;;;;;;5024904;28;20264;-70
2023/08/29 05:54:36;;;;;;;0.30;0.30;;;;;;;;;;5022871;28;20050;-70
2023/08/29 05:57:03;;;;;;;0.30;0.28;;;;;;;;;;5025411;28;20048;-70
2023/08/29 05:59:29;;;;;;;0.38;0.20;;;;;;;;;;5024259;28;20100;-71
2023/08/29 06:01:55;;;;;;;0.20;0.20;;;;;;;;;;5021408;28;20242;-70
2023/08/29 06:04:21;;;;;;;0.22;0.15;;;;;;;;;;5021075;28;20086;-70
2023/08/29 06:06:50;;;;;;;0.10;0.10;;;;;;;;;;5022030;28;20727;-70
2023/08/29 06:09:16;;;;;;;0.20;0.20;;;;;;;;;;5021070;28;20403;-70
2023/08/29 06:11:42;;;;;;;0.40;0.30;;;;;;;;;;5021124;28;20079;-70
2023/08/29 06:14:11;;;;;;;0.43;0.40;;;;;;;;;;5022463;28;20052;-71
2023/08/29 06:16:37;;;;;;;0.10;0.10;;;;;;;;;;5022045;28;20084;-70
2023/08/29 06:19:03;;;;;;;0.10;0.10;;;;;;;;;;5019479;28;20464;-70
2023/08/29 06:21:29;;;;;;;0.10;0.10;;;;;;;;;;5021893;28;20041;-71
2023/08/29 06:23:55;;;;;;;0.20;0.20;;;;;;;;;;5019503;28;20049;-70
2023/08/29 06:26:21;;;;;;;0.60;0.20;;;;;;;;;;5022711;28;20069;-71
2023/08/29 06:28:47;;;;;;;0.20;0.20;;;;;;;;;;5022015;28;20065;-71
2023/08/29 06:31:14;;;;;;;0.20;0.20;;;;;;;;;;5018853;28;20075;-71
2023/08/29 06:33:40;;;;;;;0.10;0.10;;;;;;;;;;5021620;28;20457;-70
2023/08/29 06:36:06;;;;;;;0.10;0.10;;;;;;;;;;5015153;28;20054;-71
2023/08/29 06:38:34;;;;;;;0.00;0.00;;;;;;;;;;5022183;28;20164;-71
2023/08/29 06:41:00;;;;;;;0.05;0.05;;;;;;;;;;5023437;28;20050;-71
2023/08/29 06:43:29;;;;;;;0.10;0.10;;;;;;;;;;5023053;28;20046;-71
2023/08/29 06:45:56;;;;;;;0.10;0.10;;;;;;;;;;5026883;28;20068;-71
2023/08/29 06:48:22;;;;;;;0.20;0.10;;;;;;;;;;5026770;28;20183;-71
2023/08/29 06:50:48;;;;;;;0.10;0.10;;;;;;;;;;5024900;28;20139;-71
2023/08/29 06:53:14;;;;;;;0.00;0.00;;;;;;;;;;5026533;28;20041;-71
2023/08/29 06:55:40;;;;;;;0.10;0.10;;;;;;;;;;5028106;28;20518;-72
2023/08/29 06:58:06;;;;;;;0.03;0.00;;;;;;;;;;5027079;28;20533;-71
2023/08/29 07:00:32;;;;;;;0.00;0.00;;;;;;;;;;5026161;28;20085;-71
2023/08/29 07:02:59;;;;;;;0.00;0.00;;;;;;;;;;5028040;28;20072;-70
2023/08/29 07:05:26;;;;;;;0.20;0.10;;;;;;;;;;5026159;28;20044;-70
2023/08/29 07:07:52;;;;;;;0.10;0.10;;;;;;;;;;5026544;28;20088;-71
2023/08/29 07:10:18;;;;;;;0.10;0.10;;;;;;;;;;5025504;28;20040;-70
2023/08/29 07:12:44;;;;;;;0.10;0.10;;;;;;;;;;5024789;28;20048;-70
2023/08/29 07:15:10;;;;;;;0.10;0.00;;;;;;;;;;5027022;28;20053;-70
2023/08/29 07:17:36;;;;;;;0.15;0.15;;;;;;;;;;5026723;28;20091;-70
2023/08/29 07:20:08;;;;;;;0.10;0.10;;;;;;;;;;5025891;28;20075;-71
2023/08/29 07:22:35;;;;;;;0.00;0.00;;;;;;;;;;5034041;28;20041;-70
2023/08/29 07:25:01;;;;;;;0.05;0.00;;;;;;;;;;5031697;28;20132;-71
2023/08/29 07:27:27;;;;;;;0.00;0.00;;;;;;;;;;5022680;28;20052;-70
2023/08/29 07:29:53;;;;;;;0.08;0.08;;;;;;;;;;5028126;28;20048;-71
2023/08/29 07:32:19;;;;;;;0.22;0.22;;;;;;;;;;5030379;28;20049;-70
2023/08/29 07:34:45;;;;;;;0.15;0.10;;;;;;;;;;5038319;28;20128;-71
2023/08/29 07:37:11;;;;;;;0.10;0.10;;;;;;;;;;5039579;28;20045;-71
2023/08/29 07:39:37;;;;;;;0.10;0.10;;;;;;;;;;5037032;28;20049;-79
2023/08/29 07:42:03;;;;;;;0.00;0.00;;;;;;;;;;5036879;28;20592;-75
2023/08/29 07:44:29;;;;;;;0.00;0.00;;;;;;;;;;5037969;28;20160;-79
2023/08/29 07:46:55;;;;;;;0.40;0.10;;;;;;;;;;5041778;28;20144;-69
2023/08/29 07:49:21;;;;;;;0.00;0.00;;;;;;;;;;5038241;28;20616;-75
2023/08/29 07:51:50;;;;;;;0.00;0.00;;;;;;;;;;5033563;28;20045;-68
2023/08/29 07:54:16;;;;;;;0.10;0.10;;;;;;;;;;5020930;28;20099;-69
2023/08/29 07:56:42;;;;;;;0.00;0.00;;;;;;;;;;5027307;28;20506;-68
2023/08/29 07:59:09;;;;;;;0.05;0.05;;;;;;;;;;5030823;28;20091;-68
2023/08/29 08:01:35;;;;;;;0.20;0.20;;;;;;;;;;5036441;28;20052;-69
2023/08/29 08:04:03;;;;;;;0.30;0.10;;;;;;;;;;5036644;28;20052;-69
2023/08/29 08:06:29;;;;;;;0.00;0.00;;;;;;;;;;5029545;28;20052;-69
2023/08/29 08:08:55;;;;;;;0.28;0.17;;;;;;;;;;5037323;28;20049;-69
2023/08/29 08:11:21;;;;;;;0.35;0.20;;;;;;;;;;5026122;28;20040;-69
2023/08/29 08:13:47;;;;;;;0.40;0.40;;;;;;;;;;5034570;28;20042;-69
2023/08/29 08:16:13;;;;;;;0.25;0.25;;;;;;;;;;5027462;28;20052;-69
2023/08/29 08:18:39;;;;;;;0.17;0.17;;;;;;;;;;5039541;28;20033;-68
2023/08/29 08:21:05;;;;;;;0.17;0.17;;;;;;;;;;5033442;28;20060;-71
2023/08/29 08:23:31;;;;;;;0.10;0.10;;;;;;;;;;5035471;28;20595;-72
2023/08/29 08:25:57;;;;;;;0.47;0.47;;;;;;;;;;5037057;28;20041;-72
2023/08/29 08:28:23;;;;;;;0.30;0.30;;;;;;;;;;5027886;28;20476;-72
2023/08/29 08:30:49;;;;;;;0.20;0.17;;;;;;;;;;5032517;28;20047;-72
2023/08/29 08:33:15;;;;;;;0.43;0.43;;;;;;;;;;5036509;28;20128;-72
2023/08/29 08:35:41;;;;;;;0.30;0.30;;;;;;;;;;5034024;28;20061;-72
2023/08/29 08:38:07;;;;;;;0.30;0.30;;;;;;;;;;5032279;28;20046;-75
2023/08/29 08:40:35;;;;;;;0.20;0.20;;;;;;;;;;5035406;28;20055;-73
2023/08/29 08:43:04;;;;;;;0.40;0.30;;;;;;;;;;5032965;28;20496;-73
2023/08/29 08:45:31;;;;;;;0.75;0.57;;;;;;;;;;5032662;28;20593;-73
2023/08/29 08:47:58;;;;;;;0.50;0.40;;;;;;;;;;5038000;28;20052;-71
2023/08/29 08:50:25;;;;;;;0.32;0.22;;;;;;;;;;5024654;28;20049;-72
2023/08/29 08:52:52;;;;;;;0.50;0.50;;;;;;;;;;5020972;28;20057;-72
2023/08/29 08:55:18;;;;;;;0.50;0.40;;;;;;;;;;5019028;28;20077;-73
2023/08/29 08:57:45;;;;;;;0.32;0.30;;;;;;;;;;5023591;28;20053;-73
2023/08/29 09:00:11;;;;;;;0.20;0.20;;;;;;;;;;5027502;28;20827;-72
2023/08/29 09:02:37;;;;;;;0.30;0.30;;;;;;;;;;5034249;28;20044;-72
2023/08/29 09:05:05;;;;;;;0.28;0.20;;;;;;;;;;5028741;28;20045;-73
2023/08/29 09:07:31;;;;;;;0.52;0.30;;;;;;;;;;5027898;28;20056;-73
2023/08/29 09:10:10;;;;;;;0.43;0.43;;;;;;;;;;5031108;28;20041;-73
2023/08/29 09:12:36;;;;;;;0.32;0.32;;;;;;;;;;5024302;28;20045;-73
2023/08/29 09:15:05;;;;;;;0.40;0.40;;;;;;;;;;5025852;28;20045;-74
2023/08/29 09:17:31;;;;;;;0.30;0.30;;;;;;;;;;5028890;28;20399;-74
2023/08/29 09:20:00;;;;;;;0.57;0.57;;;;;;;;;;5023489;28;20030;-74
2023/08/29 09:22:27;;;;;;;0.25;0.25;;;;;;;;;;5023897;28;20073;-74
2023/08/29 09:24:53;;;;;;;0.15;0.15;;;;;;;;;;5036023;28;20120;-74
2023/08/29 09:27:19;;;;;;;0.40;0.40;;;;;;;;;;5025321;28;20140;-73
2023/08/29 09:29:45;;;;;;;0.55;0.50;;;;;;;;;;5018565;28;20132;-73
2023/08/29 09:32:13;;;;;;;0.30;0.28;;;;;;;;;;5022651;28;20053;-72
2023/08/29 09:34:39;;;;;;;0.20;0.20;;;;;;;;;;5026352;28;20064;-71
2023/08/29 09:37:06;;;;;;;0.20;0.20;;;;;;;;;;5018242;28;20056;-72
2023/08/29 09:39:32;;;;;;;1.30;0.40;;;;;;;;;;5026263;28;20045;-73
2023/08/29 09:42:02;;;;;;;0.15;0.15;;;;;;;;;;5017980;28;20123;-73
2023/08/29 09:44:29;;;;;;;0.20;0.20;;;;;;;;;;5020885;28;20076;-72
2023/08/29 09:46:55;;;;;;;0.20;0.20;;;;;;;;;;5021841;28;20060;-73
2023/08/29 09:49:21;;;;;;;0.10;0.10;;;;;;;;;;5025307;28;20132;-73
2023/08/29 09:51:48;;;;;;;0.50;0.50;;;;;;;;;;5015727;28;20037;-72
2023/08/29 09:54:17;;;;;;;0.20;0.20;;;;;;;;;;5013708;28;20053;-73
2023/08/29 09:56:43;;;;;;;0.30;0.30;;;;;;;;;;5031541;28;20037;-73
2023/08/29 09:59:12;;;;;;;0.40;0.30;;;;;;;;;;5031151;28;20373;-73
2023/08/29 10:01:41;;;;;;;0.17;0.17;;;;;;;;;;5017613;28;20500;-70
2023/08/29 10:04:09;;;;;;;0.20;0.20;;;;;;;;;;5016061;28;20042;-71
2023/08/29 10:06:37;;;;;;;0.85;0.65;;;;;;;;;;5017397;28;20061;-71
2023/08/29 10:09:03;;;;;;;0.55;0.55;;;;;;;;;;5021134;28;20053;-71
2023/08/29 10:11:30;;;;;;;0.60;0.60;;;;;;;;;;5014219;28;20052;-71
2023/08/29 10:13:56;;;;;;;0.70;0.70;;;;;;;;;;5024964;28;20103;-71
2023/08/29 10:16:22;;;;;;;0.70;0.50;;;;;;;;;;5015272;28;20045;-71
2023/08/29 10:18:49;;;;;;;0.57;0.57;;;;;;;;;;5014682;28;20059;-72
2023/08/29 10:21:15;;;;;;;1.00;0.73;;;;;;;;;;5017509;28;20042;-72
2023/08/29 10:23:41;;;;;;;1.23;0.77;;;;;;;;;;5027737;28;20045;-71
2023/08/29 10:26:07;;;;;;;1.17;1.02;;;;;;;;;;5029706;28;20088;-71
2023/08/29 10:28:34;;;;;;;1.30;1.20;;;;;;;;;;5027037;28;20447;-71
2023/08/29 10:31:01;;;;;;;1.55;1.40;;;;;;;;;;5025699;28;20081;-72
2023/08/29 10:33:27;;;;;;;1.42;1.33;;;;;;;;;;5029876;28;20051;-71
2023/08/29 10:35:53;;;;;;;1.27;1.13;;;;;;;;;;5028208;28;20484;-71
2023/08/29 10:38:19;;;;;;;2.00;1.90;;;;;;;;;;5023478;28;20560;-71
2023/08/29 10:40:48;;;;;;;1.17;1.15;;;;;;;;;;5036132;28;20033;-71
2023/08/29 10:43:19;;;;;;;0.95;0.95;;;;;;;;;;5035533;28;20126;-71
2023/08/29 10:45:48;;;;;;;0.90;0.90;;;;;;;;;;5034569;28;20088;-71
2023/08/29 10:48:21;;;;;;;0.82;0.70;;;;;;;;;;5031740;28;20068;-71
2023/08/29 10:51:05;;;;;;;1.08;1.02;;;;;;;;;;5035792;28;20048;-71
2023/08/29 10:53:36;;;;;;;0.75;0.75;;;;;;;;;;5033402;28;20048;-71
2023/08/29 10:56:03;;;;;;;0.70;0.70;;;;;;;;;;5054066;28;20041;-71
2023/08/29 10:58:37;;;;;;;0.65;0.65;;;;;;;;;;5039187;28;20515;-71
2023/08/29 11:01:04;;;;;;;0.60;0.60;;;;;;;;;;5035702;28;20057;-71
2023/08/29 11:03:38;;;;;;;0.40;0.40;;;;;;;;;;5034988;28;20045;-71
2023/08/29 11:06:04;;;;;;;0.80;0.80;;;;;;;;;;5036170;28;20476;-70
2023/08/29 11:08:30;;;;;;;0.45;0.45;;;;;;;;;;5034578;28;20070;-71
2023/08/29 11:11:16;;;;;;;1.15;0.55;;;;;;;;;;5039055;28;20036;-71
2023/08/29 11:14:01;;;;;;;0.43;0.43;;;;;;;;;;5034701;28;20057;-71
2023/08/29 11:16:34;;;;;;;0.82;0.70;;;;;;;;;;5026782;28;20037;-71
2023/08/29 11:19:04;;;;;;;0.60;0.60;;;;;;;;;;5034671;28;20649;-71
2023/08/29 11:21:31;;;;;;;0.50;0.50;;;;;;;;;;5025988;28;20107;-71
2023/08/29 11:23:57;;;;;;;0.63;0.63;;;;;;;;;;5036023;28;20041;-71
2023/08/29 11:26:24;;;;;;;0.93;0.85;;;;;;;;;;5036405;28;20041;-71
2023/08/29 11:28:50;;;;;;;0.60;0.60;;;;;;;;;;5018207;28;20049;-71
2023/08/29 11:31:20;;;;;;;0.65;0.60;;;;;;;;;;5023135;28;20048;-71
2023/08/29 11:33:47;;;;;;;0.88;0.88;;;;;;;;;;5029499;28;20044;-71
2023/08/29 11:36:13;;;;;;;0.65;0.52;;;;;;;;;;5027199;28;20064;-70
2023/08/29 11:38:39;;;;;;;0.60;0.60;;;;;;;;;;5024348;28;20443;-70
2023/08/29 11:41:05;;;;;;;0.38;0.38;;;;;;;;;;5025058;28;20084;-70
2023/08/29 11:43:35;;;;;;;0.77;0.40;;;;;;;;;;5033314;28;20084;-71
2023/08/29 11:46:02;;;;;;;1.00;0.63;;;;;;;;;;5025400;28;20076;-70
2023/08/29 11:48:29;;;;;;;1.02;0.60;;;;;;;;;;5021332;28;20038;-70
2023/08/29 11:50:56;;;;;;;0.77;0.68;;;;;;;;;;5027139;28;20045;-70
2023/08/29 11:53:22;;;;;;;0.60;0.40;;;;;;;;;;5030066;28;20083;-70
2023/08/29 11:55:49;;;;;;;0.85;0.70;;;;;;;;;;5025597;28;20587;-70
2023/08/29 11:58:15;;;;;;;0.30;0.30;;;;;;;;;;5024954;28;20077;-71
2023/08/29 12:00:41;;;;;;;0.20;0.20;;;;;;;;;;5026959;28;20049;-71
2023/08/29 12:03:07;;;;;;;0.25;0.25;;;;;;;;;;5029799;28;20048;-70
2023/08/29 12:05:37;;;;;;;1.65;0.45;;;;;;;;;;5021593;28;20715;-70
2023/08/29 12:08:03;;;;;;;0.40;0.40;;;;;;;;;;5026586;28;20061;-71
2023/08/29 12:10:29;;;;;;;1.25;0.90;;;;;;;;;;5026656;28;20075;-70
2023/08/29 12:12:55;;;;;;;1.02;0.60;;;;;;;;;;5024150;28;20064;-71
2023/08/29 12:15:34;;;;;;;0.30;0.30;;;;;;;;;;5020895;28;20536;-70
2023/08/29 12:18:00;;;;;;;0.30;0.30;;;;;;;;;;5017401;28;20480;-70
2023/08/29 12:20:27;;;;;;;0.60;0.60;;;;;;;;;;5020352;28;20816;-71
2023/08/29 12:22:53;;;;;;;1.70;0.60;;;;;;;;;;5020064;28;20045;-72
2023/08/29 12:25:19;;;;;;;1.23;0.73;;;;;;;;;;5021402;28;20344;-69
2023/08/29 12:27:46;;;;;;;0.50;0.50;;;;;;;;;;5020712;28;20037;-70
2023/08/29 12:30:14;;;;;;;0.30;0.30;;;;;;;;;;5021490;28;20102;-70
2023/08/29 12:32:40;;;;;;;0.50;0.40;;;;;;;;;;5020356;28;20056;-70
2023/08/29 12:35:07;;;;;;;0.60;0.50;;;;;;;;;;5017068;28;20084;-70
2023/08/29 12:37:33;;;;;;;0.50;0.50;;;;;;;;;;5016716;28;20057;-70
2023/08/29 12:39:59;;;;;;;0.38;0.38;;;;;;;;;;5016935;28;20095;-70
2023/08/29 12:42:25;;;;;;;0.50;0.40;;;;;;;;;;5018162;28;20088;-70
2023/08/29 12:44:54;;;;;;;0.40;0.30;;;;;;;;;;5017586;28;20144;-70
2023/08/29 12:47:20;;;;;;;0.60;0.38;;;;;;;;;;5030072;28;20500;-70
2023/08/29 12:49:46;;;;;;;0.88;0.52;;;;;;;;;;5039961;28;20558;-70
2023/08/29 12:52:14;;;;;;;0.28;0.20;;;;;;;;;;5027525;28;20053;-70
2023/08/29 12:54:42;;;;;;;0.20;0.20;;;;;;;;;;5032844;28;20504;-70
2023/08/29 12:57:08;;;;;;;0.55;0.55;;;;;;;;;;5031763;28;20057;-70
2023/08/29 12:59:34;;;;;;;0.40;0.40;;;;;;;;;;5032448;28;20436;-70
2023/08/29 13:02:02;;;;;;;0.40;0.40;;;;;;;;;;5031931;28;20075;-70
2023/08/29 13:04:28;;;;;;;0.52;0.52;;;;;;;;;;5033411;28;20044;-70
2023/08/29 13:06:54;;;;;;;0.80;0.60;;;;;;;;;;5033293;28;20458;-70
2023/08/29 13:09:21;;;;;;;0.73;0.50;;;;;;;;;;5034738;28;20075;-69
2023/08/29 13:11:47;;;;;;;0.73;0.50;;;;;;;;;;5023923;28;20096;-68
2023/08/29 13:14:13;;;;;;;0.43;0.43;;;;;;;;;;5029139;28;20152;-69
2023/08/29 13:16:39;;;;;;;0.50;0.50;;;;;;;;;;5020479;28;20516;-68
2023/08/29 13:19:05;;;;;;;0.60;0.60;;;;;;;;;;5027278;28;20050;-68
2023/08/29 13:21:31;;;;;;;0.80;0.75;;;;;;;;;;5024410;28;20077;-80
2023/08/29 13:23:57;;;;;;;0.70;0.55;;;;;;;;;;5020047;28;20133;-76
2023/08/29 13:26:24;;;;;;;1.08;0.85;;;;;;;;;;5020203;28;20037;-75
2023/08/29 13:28:50;;;;;;;1.23;1.10;;;;;;;;;;5021504;28;20045;-75
2023/08/29 13:31:16;;;;;;;1.33;0.93;;;;;;;;;;5024702;28;20122;-75
2023/08/29 13:33:43;;;;;;;0.60;0.60;;;;;;;;;;5022582;28;20056;-74
2023/08/29 13:36:09;;;;;;;0.50;0.50;;;;;;;;;;5019420;28;20053;-77
2023/08/29 13:38:35;;;;;;;0.50;0.50;;;;;;;;;;5019256;28;20081;-77
2023/08/29 13:41:01;;;;;;;0.50;0.50;;;;;;;;;;5017735;28;20045;-78
2023/08/29 13:43:27;;;;;;;0.40;0.40;;;;;;;;;;5025327;28;20049;-79
2023/08/29 13:45:53;;;;;;;0.65;0.55;;;;;;;;;;5009448;28;20080;-78
2023/08/29 13:48:19;;;;;;;0.20;0.20;;;;;;;;;;5025716;28;20064;-80
2023/08/29 13:50:45;;;;;;;0.30;0.30;;;;;;;;;;5026913;28;20041;-81
2023/08/29 13:53:11;;;;;;;0.40;0.40;;;;;;;;;;5038984;28;20055;-80
2023/08/29 13:55:37;;;;;;;0.40;0.40;;;;;;;;;;5035788;28;20063;-80
2023/08/29 13:58:04;;;;;;;0.38;0.38;;;;;;;;;;5023651;28;20052;-78
2023/08/29 14:00:30;;;;;;;0.93;0.60;;;;;;;;;;5025441;28;20124;-75
2023/08/29 14:02:56;;;;;;;0.50;0.50;;;;;;;;;;5024136;28;20050;-75
2023/08/29 14:05:22;;;;;;;1.13;1.00;;;;;;;;;;5021776;28;20439;-75
2023/08/29 14:07:48;;;;;;;0.80;0.80;;;;;;;;;;5021177;28;20096;-75
2023/08/29 14:10:14;;;;;;;0.80;0.80;;;;;;;;;;5024459;28;20078;-75
2023/08/29 14:12:40;;;;;;;0.73;0.70;;;;;;;;;;5023201;28;20504;-75
2023/08/29 14:15:07;;;;;;;0.70;0.70;;;;;;;;;;5028391;28;20034;-75
2023/08/29 14:17:33;;;;;;;0.70;0.70;;;;;;;;;;5027101;28;20448;-75
2023/08/29 14:20:04;;;;;;;0.80;0.80;;;;;;;;;;5023123;28;20057;-74
2023/08/29 14:22:31;;;;;;;1.25;1.02;;;;;;;;;;5021632;28;20060;-75
2023/08/29 14:24:57;;;;;;;0.40;0.40;;;;;;;;;;5018797;28;20050;-77
2023/08/29 14:27:23;;;;;;;0.50;0.50;;;;;;;;;;5018904;28;20053;-78
2023/08/29 14:29:49;;;;;;;1.38;1.27;;;;;;;;;;5017684;28;20116;-78
2023/08/29 14:32:14;;;;;;;0.90;0.90;;;;;;;;;;5021054;28;20058;-77
2023/08/29 14:34:40;;;;;;;0.60;0.60;;;;;;;;;;5020063;28;20701;-77
2023/08/29 14:37:07;;;;;;;1.00;0.90;;;;;;;;;;5020076;28;20070;-77
2023/08/29 14:39:33;;;;;;;0.88;0.70;;;;;;;;;;5018001;28;20046;-76